createdAt,value
2019-03-15T00:01:24.789Z,4.67
2019-03-15T00:03:53.326Z,4.63
2019-03-15T00:06:19.455Z,5.00
2019-03-15T00:08:47.958Z,5.40
2019-03-15T00:11:14.128Z,4.53
2019-03-15T00:13:40.277Z,5.13
2019-03-15T00:16:07.658Z,4.60
2019-03-15T00:18:36.399Z,4.20
2019-03-15T00:21:05.437Z,4.37
2019-03-15T00:23:31.551Z,4.70
2019-03-15T00:25:57.567Z,5.33
2019-03-15T00:28:33.438Z,4.30
2019-03-15T00:31:00.183Z,5.87
2019-03-15T00:33:26.596Z,4.90
2019-03-15T00:35:52.635Z,5.37
2019-03-15T00:38:20.315Z,5.60
2019-03-15T00:40:47.345Z,5.27
2019-03-15T00:43:13.757Z,5.00
2019-03-15T00:45:41.002Z,3.97
2019-03-15T00:48:16.642Z,4.90
2019-03-15T00:50:42.775Z,5.03
2019-03-15T00:53:16.430Z,4.80
2019-03-15T00:55:43.872Z,5.27
2019-03-15T00:58:13.561Z,4.50
2019-03-15T01:00:39.715Z,4.13
2019-03-15T01:03:23.870Z,4.67
2019-03-15T01:05:49.970Z,4.47
2019-03-15T01:08:16.010Z,4.40
2019-03-15T01:10:42.388Z,4.93
2019-03-15T01:13:10.378Z,4.60
2019-03-15T01:15:38.417Z,4.60
2019-03-15T01:18:04.820Z,3.97
2019-03-15T01:20:31.219Z,5.17
2019-03-15T01:22:57.362Z,4.00
2019-03-15T01:25:23.502Z,3.53
2019-03-15T01:27:49.608Z,5.10
2019-03-15T01:30:15.907Z,4.40
2019-03-15T01:32:42.266Z,4.53
2019-03-15T01:35:08.319Z,5.53
2019-03-15T01:37:34.528Z,4.90
2019-03-15T01:40:01.278Z,4.40
2019-03-15T01:42:27.493Z,4.70
2019-03-15T01:44:56.896Z,4.10
2019-03-15T01:47:23.137Z,4.53
2019-03-15T01:49:51.386Z,4.90
2019-03-15T01:52:17.519Z,4.27
2019-03-15T01:54:44.324Z,6.13
2019-03-15T01:57:10.656Z,5.40
2019-03-15T01:59:37.955Z,4.80
2019-03-15T02:02:04.289Z,3.50
2019-03-15T02:04:30.430Z,4.00
2019-03-15T02:06:57.260Z,4.10
2019-03-15T02:09:23.415Z,3.80
2019-03-15T02:11:49.525Z,4.10
2019-03-15T02:14:16.781Z,4.00
2019-03-15T02:16:44.175Z,4.27
2019-03-15T02:19:10.383Z,3.60
2019-03-15T02:21:36.777Z,3.27
2019-03-15T02:24:03.564Z,4.50
2019-03-15T02:26:30.176Z,4.53
2019-03-15T02:28:56.316Z,4.53
2019-03-15T02:31:24.403Z,3.67
2019-03-15T02:33:50.909Z,4.40
2019-03-15T02:36:19.088Z,3.23
2019-03-15T02:38:47.143Z,4.23
2019-03-15T02:41:13.690Z,3.87
2019-03-15T02:43:39.874Z,3.70
2019-03-15T02:46:07.594Z,3.60
2019-03-15T02:48:40.650Z,3.90
2019-03-15T02:51:07.054Z,4.43
2019-03-15T02:53:34.970Z,3.97
2019-03-15T02:56:04.160Z,4.23
2019-03-15T03:01:34.313Z,3.80
2019-03-15T03:04:12.258Z,3.90
2019-03-15T03:06:49.130Z,3.80
2019-03-15T03:09:37.966Z,4.90
2019-03-15T03:12:17.453Z,3.97
2019-03-15T03:21:32.470Z,3.80
2019-03-15T03:26:51.643Z,5.00
2019-03-15T03:29:50.780Z,6.53
2019-03-15T03:32:21.782Z,4.27
2019-03-15T03:34:47.829Z,4.87
2019-03-15T03:37:13.954Z,5.03
2019-03-15T03:39:41.516Z,4.00
2019-03-15T03:42:11.751Z,4.43
2019-03-15T03:44:40.856Z,3.70
2019-03-15T03:47:10.760Z,4.60
2019-03-15T03:49:37.561Z,4.00
2019-03-15T03:52:07.730Z,5.40
2019-03-15T03:54:35.324Z,4.37
2019-03-15T03:57:01.801Z,4.40
2019-03-15T03:59:28.262Z,4.17
2019-03-15T04:01:54.715Z,5.00
2019-03-15T04:04:21.188Z,5.07
2019-03-15T04:06:48.243Z,4.97
2019-03-15T04:09:14.330Z,3.90
2019-03-15T04:11:54.324Z,4.03
2019-03-15T04:14:09.737Z,4.80
2019-03-15T04:16:36.031Z,4.57
2019-03-15T04:19:04.086Z,4.63
2019-03-15T04:21:30.236Z,4.33
2019-03-15T04:23:57.210Z,4.80
2019-03-15T04:26:23.404Z,5.73
2019-03-15T04:28:50.133Z,4.87
2019-03-15T04:31:18.921Z,4.70
2019-03-15T04:33:45.111Z,4.50
2019-03-15T04:36:14.306Z,4.20
2019-03-15T04:38:41.684Z,5.87
2019-03-15T04:41:08.160Z,4.70
2019-03-15T04:43:34.222Z,4.33
2019-03-15T04:46:00.368Z,5.07
2019-03-15T04:48:30.116Z,4.70
2019-03-15T04:50:58.876Z,5.63
2019-03-15T04:53:29.222Z,4.30
2019-03-15T04:55:55.496Z,5.23
2019-03-15T04:58:21.686Z,4.83
2019-03-15T05:00:51.531Z,5.23
2019-03-15T05:03:25.606Z,5.50
2019-03-15T05:06:02.684Z,4.47
2019-03-15T05:08:21.008Z,5.03
2019-03-15T05:10:48.483Z,5.90
2019-03-15T05:13:15.093Z,4.97
2019-03-15T05:15:43.398Z,5.20
2019-03-15T05:18:09.738Z,5.47
2019-03-15T05:20:35.911Z,5.13
2019-03-15T05:23:04.425Z,5.07
2019-03-15T05:25:31.276Z,4.73
2019-03-15T05:27:59.573Z,5.07
2019-03-15T05:30:26.268Z,5.10
2019-03-15T05:32:52.922Z,4.47
2019-03-15T05:35:21.161Z,5.20
2019-03-15T05:37:47.356Z,4.90
2019-03-15T05:40:13.945Z,5.90
2019-03-15T05:42:39.972Z,4.53
2019-03-15T05:45:13.993Z,5.40
2019-03-15T05:47:40.045Z,5.67
2019-03-15T05:50:10.685Z,4.83
2019-03-15T05:52:38.319Z,5.77
2019-03-15T05:55:10.758Z,5.07
2019-03-15T05:57:37.137Z,7.40
2019-03-15T06:00:06.638Z,5.33
2019-03-15T06:02:32.755Z,5.13
2019-03-15T06:05:00.995Z,5.70
2019-03-15T06:07:27.043Z,6.40
2019-03-15T06:09:55.601Z,8.83
2019-03-15T06:12:24.456Z,6.63
2019-03-15T06:14:53.252Z,6.97
2019-03-15T06:17:22.087Z,6.50
2019-03-15T06:19:49.312Z,5.43
2019-03-15T06:22:18.363Z,6.10
2019-03-15T06:24:44.438Z,7.53
2019-03-15T06:27:10.719Z,7.00
2019-03-15T06:29:38.483Z,6.77
2019-03-15T06:32:25.009Z,6.60
2019-03-15T06:34:52.654Z,10.63
2019-03-15T06:37:20.974Z,6.90
2019-03-15T06:39:47.017Z,7.13
2019-03-15T06:42:13.226Z,8.70
2019-03-15T06:44:40.043Z,6.70
2019-03-15T06:47:10.250Z,6.90
2019-03-15T06:49:40.369Z,6.77
2019-03-15T06:52:06.512Z,9.17
2019-03-15T06:54:34.335Z,8.10
2019-03-15T06:57:03.486Z,7.10
2019-03-15T06:59:30.043Z,6.20
2019-03-15T07:01:56.436Z,5.77
2019-03-15T07:04:23.978Z,6.80
2019-03-15T07:06:54.570Z,6.07
2019-03-15T07:09:20.784Z,6.97
2019-03-15T07:11:50.162Z,6.80
2019-03-15T07:14:19.328Z,6.00
2019-03-15T07:16:50.289Z,5.90
2019-03-15T07:19:26.428Z,6.67
2019-03-15T07:21:46.839Z,5.83
2019-03-15T07:24:24.409Z,6.53
2019-03-15T07:26:44.105Z,6.57
2019-03-15T07:29:12.228Z,6.50
2019-03-15T07:31:41.185Z,6.67
2019-03-15T07:34:13.635Z,7.43
2019-03-15T07:36:38.869Z,6.17
2019-03-15T07:39:05.335Z,6.77
2019-03-15T07:41:31.720Z,7.30
2019-03-15T07:44:00.280Z,7.60
2019-03-15T07:46:26.426Z,7.53
2019-03-15T07:48:52.898Z,9.70
2019-03-15T07:51:22.528Z,7.33
2019-03-15T07:53:48.632Z,8.30
2019-03-15T07:56:17.148Z,9.60
2019-03-15T07:58:45.301Z,10.23
2019-03-15T08:01:11.411Z,9.70
2019-03-15T08:03:37.801Z,9.63
2019-03-15T08:06:07.016Z,9.77
2019-03-15T08:08:33.134Z,10.53
2019-03-15T08:11:00.024Z,9.90
2019-03-15T08:13:26.563Z,10.97
2019-03-15T08:15:54.028Z,11.27
2019-03-15T08:18:21.426Z,12.10
2019-03-15T08:20:50.111Z,12.00
2019-03-15T08:23:18.650Z,11.30
2019-03-15T08:25:50.410Z,10.10
2019-03-15T08:28:19.525Z,11.00
2019-03-15T08:30:47.458Z,10.80
2019-03-15T08:33:13.776Z,12.43
2019-03-15T08:35:41.377Z,11.43
2019-03-15T08:38:08.100Z,9.33
2019-03-15T08:40:34.387Z,10.57
2019-03-15T08:43:02.895Z,9.70
2019-03-15T08:45:31.712Z,8.80
2019-03-15T08:47:59.040Z,9.20
2019-03-15T08:50:27.260Z,10.23
2019-03-15T08:52:54.315Z,10.73
2019-03-15T08:55:21.821Z,8.93
2019-03-15T08:57:51.109Z,9.87
2019-03-15T09:00:18.069Z,9.87
2019-03-15T09:02:44.566Z,10.13
2019-03-15T09:05:17.799Z,10.53
2019-03-15T09:07:43.857Z,10.50
2019-03-15T09:10:22.421Z,9.33
2019-03-15T09:12:43.483Z,10.87
2019-03-15T09:15:11.930Z,9.10
2019-03-15T09:17:38.183Z,10.37
2019-03-15T09:20:06.603Z,10.13
2019-03-15T09:22:32.713Z,11.80
2019-03-15T09:24:58.927Z,9.93
2019-03-15T09:27:25.110Z,10.43
2019-03-15T09:29:51.239Z,10.20
2019-03-15T09:32:19.671Z,10.20
2019-03-15T09:34:56.492Z,10.50
2019-03-15T09:37:22.692Z,10.37
2019-03-15T09:39:49.495Z,11.90
2019-03-15T09:42:20.739Z,12.07
2019-03-15T09:44:47.066Z,12.73
2019-03-15T09:47:19.655Z,11.90
2019-03-15T09:49:47.701Z,12.03
2019-03-15T09:52:15.498Z,12.37
2019-03-15T09:54:41.672Z,12.90
2019-03-15T09:57:10.099Z,11.40
2019-03-15T09:59:48.231Z,11.77
2019-03-15T10:02:14.383Z,12.93
2019-03-15T10:04:40.742Z,11.50
2019-03-15T10:07:08.399Z,11.00
2019-03-15T10:09:45.124Z,11.50
2019-03-15T10:12:02.966Z,11.13
2019-03-15T10:14:29.207Z,10.80
2019-03-15T10:16:55.397Z,10.17
2019-03-15T10:19:24.697Z,9.87
2019-03-15T10:21:50.798Z,10.40
2019-03-15T10:24:17.257Z,10.30
2019-03-15T10:26:44.557Z,10.97
2019-03-15T10:29:15.734Z,9.70
2019-03-15T10:31:42.542Z,9.13
2019-03-15T10:34:08.641Z,10.20
2019-03-15T10:36:36.586Z,10.03
2019-03-15T10:39:04.816Z,9.00
2019-03-15T10:41:30.947Z,10.27
2019-03-15T10:43:57.109Z,9.10
2019-03-15T10:46:29.142Z,10.37
2019-03-15T10:48:55.325Z,9.20
2019-03-15T10:51:21.488Z,9.10
2019-03-15T10:53:48.051Z,9.90
2019-03-15T10:56:16.858Z,10.60
2019-03-15T10:58:45.061Z,9.43
2019-03-15T11:01:12.518Z,8.53
2019-03-15T11:03:38.708Z,8.17
2019-03-15T11:06:04.970Z,9.10
2019-03-15T11:08:31.150Z,8.20
2019-03-15T11:10:57.314Z,8.30
2019-03-15T11:13:26.264Z,6.80
2019-03-15T11:15:53.571Z,8.00
2019-03-15T11:18:19.697Z,7.70
2019-03-15T11:20:45.825Z,6.50
2019-03-15T11:23:11.931Z,6.43
2019-03-15T11:25:41.994Z,4.83
2019-03-15T11:28:10.075Z,5.17
2019-03-15T11:30:36.427Z,4.80
2019-03-15T11:33:04.010Z,4.33
2019-03-15T11:35:30.262Z,4.23
2019-03-15T11:37:56.671Z,4.27
2019-03-15T11:40:22.922Z,4.43
2019-03-15T11:42:49.025Z,3.80
2019-03-15T11:45:15.609Z,5.57
2019-03-15T11:48:01.297Z,3.80
2019-03-15T11:50:14.111Z,3.90
2019-03-15T11:52:40.445Z,4.10
2019-03-15T11:55:09.315Z,4.40
2019-03-15T11:57:36.843Z,3.57
2019-03-15T12:00:16.434Z,4.20
2019-03-15T12:02:42.643Z,3.67
2019-03-15T12:05:09.233Z,3.60
2019-03-15T12:07:35.667Z,3.77
2019-03-15T12:10:04.059Z,3.17
2019-03-15T12:12:30.544Z,3.40
2019-03-15T12:14:56.616Z,3.30
2019-03-15T12:17:22.751Z,3.60
2019-03-15T12:19:52.036Z,3.10
2019-03-15T12:22:20.425Z,2.90
2019-03-15T12:24:49.675Z,4.67
2019-03-15T12:27:15.783Z,2.50
2019-03-15T12:29:42.011Z,2.63
2019-03-15T12:32:08.199Z,2.30
2019-03-15T12:34:38.715Z,2.07
2019-03-15T12:37:04.922Z,1.90
2019-03-15T12:39:31.202Z,1.40
2019-03-15T12:41:59.304Z,1.73
2019-03-15T12:44:27.682Z,1.40
2019-03-15T12:46:54.235Z,1.40
2019-03-15T12:49:25.489Z,1.40
2019-03-15T12:51:51.437Z,1.50
2019-03-15T12:54:17.622Z,1.60
2019-03-15T12:56:53.574Z,1.30
2019-03-15T12:59:12.385Z,1.50
2019-03-15T13:01:44.023Z,1.30
2019-03-15T13:04:12.065Z,1.40
2019-03-15T13:06:38.512Z,1.53
2019-03-15T13:09:08.829Z,1.23
2019-03-15T13:11:37.038Z,3.57
2019-03-15T13:14:06.223Z,2.20
2019-03-15T13:16:35.834Z,1.83
2019-03-15T13:19:02.691Z,1.50
2019-03-15T13:21:29.445Z,1.40
2019-03-15T13:23:55.832Z,1.30
2019-03-15T13:26:29.007Z,1.40
2019-03-15T13:28:55.167Z,1.30
2019-03-15T13:31:21.896Z,1.20
2019-03-15T13:33:48.527Z,1.53
2019-03-15T13:36:16.702Z,1.33
2019-03-15T13:38:43.764Z,1.40
2019-03-15T13:41:13.182Z,1.23
2019-03-15T13:43:39.479Z,1.40
2019-03-15T13:46:06.752Z,1.70
2019-03-15T13:48:36.966Z,1.30
2019-03-15T13:51:03.244Z,1.73
2019-03-15T13:53:39.556Z,1.60
2019-03-15T13:56:09.189Z,1.40
2019-03-15T13:58:36.276Z,1.60
2019-03-15T14:01:08.889Z,1.30
2019-03-15T14:03:42.418Z,1.87
2019-03-15T14:06:08.857Z,1.70
2019-03-15T14:08:36.601Z,1.57
2019-03-15T14:11:03.636Z,1.40
2019-03-15T14:13:30.049Z,1.40
2019-03-15T14:15:56.291Z,1.43
2019-03-15T14:18:25.912Z,1.50
2019-03-15T14:20:52.047Z,1.20
2019-03-15T14:23:18.665Z,1.40
2019-03-15T14:25:44.780Z,1.50
2019-03-15T14:28:11.317Z,1.73
2019-03-15T14:30:37.367Z,1.40
2019-03-15T14:33:05.713Z,1.50
2019-03-15T14:35:33.906Z,1.40
2019-03-15T14:38:00.475Z,1.60
2019-03-15T14:40:31.797Z,1.50
2019-03-15T14:42:59.631Z,1.40
2019-03-15T14:45:26.180Z,1.40
2019-03-15T14:47:54.496Z,1.30
2019-03-15T14:50:22.098Z,1.30
2019-03-15T14:52:48.745Z,2.00
2019-03-15T14:55:17.094Z,1.33
2019-03-15T14:57:52.163Z,1.47
2019-03-15T15:00:18.629Z,1.40
2019-03-15T15:02:44.870Z,1.10
2019-03-15T15:05:13.126Z,1.20
2019-03-15T15:07:39.800Z,1.47
2019-03-15T15:10:08.759Z,1.60
2019-03-15T15:12:37.766Z,1.20
2019-03-15T15:15:08.013Z,1.50
2019-03-15T15:17:34.416Z,1.30
2019-03-15T15:20:00.597Z,1.30
2019-03-15T15:22:29.683Z,1.30
2019-03-15T15:24:55.965Z,1.40
2019-03-15T15:27:25.418Z,1.40
2019-03-15T15:29:50.309Z,1.40
2019-03-15T15:32:16.641Z,1.20
2019-03-15T15:34:45.870Z,1.40
2019-03-15T15:37:16.265Z,1.20
2019-03-15T15:39:43.956Z,1.40
2019-03-15T15:42:22.179Z,1.83
2019-03-15T15:44:48.348Z,1.80
2019-03-15T15:47:16.630Z,1.33
2019-03-15T15:49:43.774Z,1.90
2019-03-15T15:52:11.330Z,1.50
2019-03-15T15:54:37.478Z,1.30
2019-03-15T15:57:04.058Z,1.57
2019-03-15T15:59:36.999Z,1.40
2019-03-15T16:02:03.195Z,1.50
2019-03-15T16:04:29.792Z,1.63
2019-03-15T16:07:01.810Z,1.20
2019-03-15T16:09:25.599Z,1.70
2019-03-15T16:11:51.955Z,1.20
2019-03-15T16:14:21.576Z,1.40
2019-03-15T16:16:51.446Z,1.37
2019-03-15T16:19:18.937Z,1.20
2019-03-15T16:21:45.177Z,1.37
2019-03-15T16:24:14.994Z,1.43
2019-03-15T16:26:41.296Z,1.37
2019-03-15T16:29:09.232Z,1.30
2019-03-15T16:31:36.811Z,1.50
2019-03-15T16:34:03.175Z,1.67
2019-03-15T16:36:31.626Z,1.20
2019-03-15T16:38:58.176Z,1.40
2019-03-15T16:41:25.390Z,1.43
2019-03-15T16:43:55.579Z,1.23
2019-03-15T16:46:21.966Z,1.83
2019-03-15T16:48:50.705Z,1.40
2019-03-15T16:51:19.831Z,1.57
2019-03-15T16:53:49.044Z,1.50
2019-03-15T16:56:20.256Z,1.57
2019-03-15T16:58:46.719Z,1.70
2019-03-15T17:01:14.221Z,1.57
2019-03-15T17:03:40.661Z,1.50
2019-03-15T17:06:09.433Z,2.03
2019-03-15T17:08:35.744Z,1.30
2019-03-15T17:11:03.130Z,1.40
2019-03-15T17:13:29.555Z,1.40
2019-03-15T17:15:59.164Z,1.60
2019-03-15T17:18:32.590Z,1.53
2019-03-15T17:21:00.743Z,1.40
2019-03-15T17:23:26.996Z,1.20
2019-03-15T17:25:54.314Z,1.40
2019-03-15T17:28:22.131Z,1.70
2019-03-15T17:30:49.716Z,2.07
2019-03-15T17:33:16.056Z,7.83
2019-03-15T17:35:44.731Z,1.60
2019-03-15T17:38:11.081Z,2.20
2019-03-15T17:40:37.277Z,1.43
2019-03-15T17:43:07.273Z,2.40
2019-03-15T17:45:34.731Z,2.00
2019-03-15T17:48:00.802Z,1.70
2019-03-15T17:50:27.150Z,1.47
2019-03-15T17:52:58.221Z,3.57
2019-03-15T17:55:30.187Z,1.60
2019-03-15T17:57:56.257Z,1.63
2019-03-15T18:00:39.804Z,3.30
2019-03-15T18:03:20.780Z,1.90
2019-03-15T18:05:40.769Z,1.60
2019-03-15T18:08:08.778Z,1.63
2019-03-15T18:10:36.255Z,1.80
2019-03-15T18:13:04.964Z,2.30
2019-03-15T18:15:33.363Z,2.10
2019-03-15T18:18:00.598Z,1.70
2019-03-15T18:20:26.767Z,1.80
2019-03-15T18:22:53.960Z,1.50
2019-03-15T18:25:23.547Z,2.23
2019-03-15T18:27:51.726Z,2.50
2019-03-15T18:30:18.513Z,1.40
2019-03-15T18:32:45.144Z,1.60
2019-03-15T18:35:13.645Z,2.30
2019-03-15T18:37:48.223Z,1.70
2019-03-15T18:40:16.229Z,1.90
2019-03-15T18:42:42.649Z,1.83
2019-03-15T18:45:15.415Z,1.63
2019-03-15T18:47:43.706Z,2.00
2019-03-15T18:50:13.627Z,1.60
2019-03-15T18:52:41.302Z,2.70
2019-03-15T18:55:08.473Z,1.90
2019-03-15T18:57:35.732Z,1.70
2019-03-15T19:00:09.821Z,1.90
2019-03-15T19:02:39.165Z,1.43
2019-03-15T19:05:07.551Z,1.60
2019-03-15T19:07:33.955Z,2.63
2019-03-15T19:10:03.011Z,2.17
2019-03-15T19:12:29.399Z,1.80
2019-03-15T19:14:56.933Z,1.50
2019-03-15T19:17:26.590Z,1.50
2019-03-15T19:19:55.396Z,1.60
2019-03-15T19:22:22.294Z,1.50
2019-03-15T19:24:50.136Z,1.70
2019-03-15T19:27:16.438Z,1.40
2019-03-15T19:29:53.127Z,1.70
2019-03-15T19:32:11.895Z,1.60
2019-03-15T19:34:38.202Z,1.50
2019-03-15T19:37:04.534Z,2.13
2019-03-15T19:39:31.584Z,1.80
2019-03-15T19:41:59.833Z,1.90
2019-03-15T19:44:26.392Z,1.90
2019-03-15T19:46:52.586Z,1.60
2019-03-15T19:49:18.847Z,1.70
2019-03-15T19:51:45.082Z,2.03
2019-03-15T19:54:12.897Z,2.40
2019-03-15T19:56:39.135Z,1.50
2019-03-15T19:59:05.320Z,1.60
2019-03-15T20:01:31.607Z,1.40
2019-03-15T20:03:57.878Z,1.63
2019-03-15T20:06:24.194Z,1.60
2019-03-15T20:08:50.237Z,1.90
2019-03-15T20:11:16.748Z,1.30
2019-03-15T20:13:42.902Z,1.50
2019-03-15T20:16:09.110Z,1.50
2019-03-15T20:18:35.818Z,1.60
2019-03-15T20:21:02.694Z,1.60
2019-03-15T20:23:30.140Z,1.60
2019-03-15T20:25:56.717Z,1.60
2019-03-15T20:28:24.030Z,1.57
2019-03-15T20:30:52.151Z,1.80
2019-03-15T20:33:19.895Z,1.50
2019-03-15T20:35:48.132Z,1.40
2019-03-15T20:38:16.715Z,1.67
2019-03-15T20:40:43.621Z,1.60
2019-03-15T20:43:11.130Z,1.50
2019-03-15T20:45:37.813Z,1.60
2019-03-15T20:48:06.993Z,1.50
2019-03-15T20:50:46.266Z,1.60
2019-03-15T20:53:08.730Z,1.53
2019-03-15T20:55:31.495Z,1.50
2019-03-15T20:58:00.076Z,1.50
2019-03-15T21:00:35.484Z,1.70
2019-03-15T21:02:56.505Z,1.80
2019-03-15T21:05:22.852Z,1.40
2019-03-15T21:07:50.304Z,1.50
2019-03-15T21:10:17.261Z,1.60
2019-03-15T21:12:43.462Z,1.80
2019-03-15T21:15:12.251Z,1.53
2019-03-15T21:17:39.825Z,1.50
2019-03-15T21:20:09.724Z,1.90
2019-03-15T21:22:38.634Z,1.60
2019-03-15T21:25:07.981Z,1.30
2019-03-15T21:27:36.936Z,1.50
2019-03-15T21:30:24.361Z,1.70
2019-03-15T21:32:50.817Z,1.67
2019-03-15T21:35:19.098Z,1.50
2019-03-15T21:37:47.292Z,1.53
2019-03-15T21:40:17.765Z,2.40
2019-03-15T21:42:44.018Z,1.40
2019-03-15T21:45:10.825Z,1.40
2019-03-15T21:47:38.089Z,1.40
2019-03-15T21:50:09.018Z,1.90
2019-03-15T21:52:35.248Z,1.50
2019-03-15T21:55:03.729Z,1.60
2019-03-15T21:57:30.678Z,1.30
2019-03-15T21:59:56.827Z,1.47
2019-03-15T22:02:29.024Z,1.60
2019-03-15T22:04:55.347Z,1.57
2019-03-15T22:07:21.593Z,1.50
2019-03-15T22:09:48.357Z,1.40
2019-03-15T22:12:14.710Z,1.40
2019-03-15T22:14:42.231Z,1.90
2019-03-15T22:17:09.546Z,1.60
2019-03-15T22:19:39.533Z,1.37
2019-03-15T22:22:08.761Z,1.53
2019-03-15T22:24:36.204Z,1.77
2019-03-15T22:27:06.636Z,1.73
2019-03-15T22:29:35.944Z,2.07
2019-03-15T22:32:12.546Z,2.10
2019-03-15T22:34:31.920Z,1.50
2019-03-15T22:36:58.215Z,1.50
2019-03-15T22:39:24.551Z,1.50
2019-03-15T22:41:53.562Z,1.53
2019-03-15T22:44:22.515Z,1.30
2019-03-15T22:46:48.750Z,1.30
2019-03-15T22:49:16.138Z,1.20
2019-03-15T22:51:42.444Z,1.50
2019-03-15T22:54:08.504Z,1.50
2019-03-15T22:56:34.705Z,1.50
2019-03-15T22:59:00.821Z,1.50
2019-03-15T23:01:30.396Z,1.60
2019-03-15T23:03:55.781Z,1.73
2019-03-15T23:06:24.092Z,1.90
2019-03-15T23:08:50.453Z,1.73
2019-03-15T23:11:16.775Z,1.23
2019-03-15T23:13:42.889Z,1.90
2019-03-15T23:16:09.355Z,1.80
2019-03-15T23:18:38.519Z,1.47
2019-03-15T23:21:04.689Z,1.60
2019-03-15T23:23:34.897Z,1.30
2019-03-15T23:26:03.595Z,1.40
2019-03-15T23:28:30.035Z,1.30
2019-03-15T23:30:57.346Z,1.60
2019-03-15T23:33:23.455Z,1.50
2019-03-15T23:35:54.081Z,1.40
2019-03-15T23:38:19.873Z,1.33
2019-03-15T23:40:45.988Z,2.30
2019-03-15T23:43:14.711Z,1.60
2019-03-15T23:45:41.101Z,2.07
2019-03-15T23:48:07.558Z,1.93
2019-03-15T23:50:35.131Z,1.67
2019-03-15T23:53:01.334Z,1.83
2019-03-15T23:55:27.496Z,1.70
2019-03-15T23:57:56.404Z,1.70
